Terminal Aerodrome Forecast
Issued by NWS

Home | Current Version | Previous Version | Text Only | Print | Product List | Glossary On
Versions: 1 2 3 4 5 6 7 8 9 10 11 12 13 14 15 16 17 18 19 20 21 22 23 24 25
000
FTUS46 KSEW 272000 AAA
TAFSEA
TAF AMD
KSEA 272001Z 2720/2824 02008KT P6SM -RA SCT020 OVC040
      TEMPO 2720/2722 BKN010 OVC040
     FM272200 03008KT P6SM SCT020 BKN035 OVC050
     FM280000 03009KT P6SM OVC050
     FM280300 03009KT P6SM BKN080
     FM280700 02008KT P6SM SCT250=

USA.gov is the U.S. government's official web portal to all federal, state and local government web resources and services.